sensor_id;sensor_type;location;lat;lon;timestamp;pressure;altitude;pressure_sealevel;temperature
66795;BMP280;53698;52.738;4.752;2022-11-24T00:00:17;100136.06;;;10.33
66795;BMP280;53698;52.738;4.752;2022-11-24T00:02:42;100143.94;;;10.31
66795;BMP280;53698;52.738;4.752;2022-11-24T00:05:07;100142.13;;;10.28
66795;BMP280;53698;52.738;4.752;2022-11-24T00:07:33;100140.16;;;10.29
66795;BMP280;53698;52.738;4.752;2022-11-24T00:09:58;100156.06;;;10.30
66795;BMP280;53698;52.738;4.752;2022-11-24T00:12:23;100166.94;;;10.39
66795;BMP280;53698;52.738;4.752;2022-11-24T00:14:49;100162.41;;;10.45
66795;BMP280;53698;52.738;4.752;2022-11-24T00:17:14;100161.19;;;10.54
66795;BMP280;53698;52.738;4.752;2022-11-24T00:19:39;100159.66;;;10.62
66795;BMP280;53698;52.738;4.752;2022-11-24T00:22:06;100170.06;;;10.72
66795;BMP280;53698;52.738;4.752;2022-11-24T00:24:31;100161.56;;;10.79
66795;BMP280;53698;52.738;4.752;2022-11-24T00:26:56;100163.38;;;10.82
66795;BMP280;53698;52.738;4.752;2022-11-24T00:29:22;100172.81;;;10.72
66795;BMP280;53698;52.738;4.752;2022-11-24T00:31:47;100173.69;;;10.78
66795;BMP280;53698;52.738;4.752;2022-11-24T00:34:13;100179.47;;;10.80
66795;BMP280;53698;52.738;4.752;2022-11-24T00:36:38;100193.53;;;10.87
66795;BMP280;53698;52.738;4.752;2022-11-24T00:39:05;100192.94;;;10.84
66795;BMP280;53698;52.738;4.752;2022-11-24T00:41:31;100194.03;;;10.77
66795;BMP280;53698;52.738;4.752;2022-11-24T00:43:56;100184.59;;;10.78
66795;BMP280;53698;52.738;4.752;2022-11-24T00:46:22;100185.97;;;10.83
66795;BMP280;53698;52.738;4.752;2022-11-24T00:48:48;100210.84;;;10.76
66795;BMP280;53698;52.738;4.752;2022-11-24T00:51:14;100205.22;;;10.70
66795;BMP280;53698;52.738;4.752;2022-11-24T00:53:40;100210.56;;;10.74
66795;BMP280;53698;52.738;4.752;2022-11-24T00:56:05;100209.19;;;10.69
66795;BMP280;53698;52.738;4.752;2022-11-24T00:58:31;100209.34;;;10.66
66795;BMP280;53698;52.738;4.752;2022-11-24T01:03:28;100204.66;;;10.67
66795;BMP280;53698;52.738;4.752;2022-11-24T01:05:54;100220.44;;;10.63
66795;BMP280;53698;52.738;4.752;2022-11-24T01:08:19;100205.66;;;10.78
66795;BMP280;53698;52.738;4.752;2022-11-24T01:10:44;100218.75;;;10.74
66795;BMP280;53698;52.738;4.752;2022-11-24T01:13:10;100215.84;;;10.77
66795;BMP280;53698;52.738;4.752;2022-11-24T01:15:37;100216.91;;;10.71
66795;BMP280;53698;52.738;4.752;2022-11-24T01:18:03;100224.81;;;10.69
66795;BMP280;53698;52.738;4.752;2022-11-24T01:20:28;100222.38;;;10.62
66795;BMP280;53698;52.738;4.752;2022-11-24T01:22:54;100228.13;;;10.64
66795;BMP280;53698;52.738;4.752;2022-11-24T01:25:19;100234.50;;;10.61
66795;BMP280;53698;52.738;4.752;2022-11-24T01:27:44;100234.50;;;10.61
66795;BMP280;53698;52.738;4.752;2022-11-24T01:30:10;100236.03;;;10.53
66795;BMP280;53698;52.738;4.752;2022-11-24T01:32:35;100231.94;;;10.49
66795;BMP280;53698;52.738;4.752;2022-11-24T01:35:02;100241.63;;;10.50
66795;BMP280;53698;52.738;4.752;2022-11-24T01:37:27;100244.19;;;10.53
66795;BMP280;53698;52.738;4.752;2022-11-24T01:39:52;100242.69;;;10.52
66795;BMP280;53698;52.738;4.752;2022-11-24T01:42:18;100261.63;;;10.47
66795;BMP280;53698;52.738;4.752;2022-11-24T01:44:43;100250.13;;;10.52
66795;BMP280;53698;52.738;4.752;2022-11-24T01:49:38;100254.06;;;10.42
66795;BMP280;53698;52.738;4.752;2022-11-24T01:52:15;100258.47;;;10.49
66795;BMP280;53698;52.738;4.752;2022-11-24T01:54:44;100256.78;;;10.51
66795;BMP280;53698;52.738;4.752;2022-11-24T01:57:22;100260.28;;;10.51
66795;BMP280;53698;52.738;4.752;2022-11-24T01:59:48;100274.22;;;10.53
66795;BMP280;53698;52.738;4.752;2022-11-24T02:02:20;100263.94;;;10.49
66795;BMP280;53698;52.738;4.752;2022-11-24T02:04:45;100261.78;;;10.52
66795;BMP280;53698;52.738;4.752;2022-11-24T02:07:11;100260.41;;;10.39
66795;BMP280;53698;52.738;4.752;2022-11-24T02:09:55;100261.94;;;10.32
66795;BMP280;53698;52.738;4.752;2022-11-24T02:12:22;100266.19;;;10.41
66795;BMP280;53698;52.738;4.752;2022-11-24T02:14:48;100267.22;;;10.35
66795;BMP280;53698;52.738;4.752;2022-11-24T02:17:14;100278.47;;;10.37
66795;BMP280;53698;52.738;4.752;2022-11-24T02:22:14;100279.81;;;10.41
66795;BMP280;53698;52.738;4.752;2022-11-24T02:24:44;100288.16;;;10.47
66795;BMP280;53698;52.738;4.752;2022-11-24T02:27:11;100295.75;;;10.51
66795;BMP280;53698;52.738;4.752;2022-11-24T02:29:36;100296.03;;;10.62
66795;BMP280;53698;52.738;4.752;2022-11-24T02:32:02;100309.06;;;10.67
66795;BMP280;53698;52.738;4.752;2022-11-24T02:34:28;100305.13;;;10.68
66795;BMP280;53698;52.738;4.752;2022-11-24T02:36:53;100314.81;;;10.78
66795;BMP280;53698;52.738;4.752;2022-11-24T02:39:18;100324.06;;;10.80
66795;BMP280;53698;52.738;4.752;2022-11-24T02:41:49;100320.88;;;10.82
66795;BMP280;53698;52.738;4.752;2022-11-24T02:44:16;100327.56;;;10.81
66795;BMP280;53698;52.738;4.752;2022-11-24T02:46:42;100308.44;;;10.89
66795;BMP280;53698;52.738;4.752;2022-11-24T02:49:07;100321.78;;;10.87
66795;BMP280;53698;52.738;4.752;2022-11-24T02:51:33;100308.13;;;10.96
66795;BMP280;53698;52.738;4.752;2022-11-24T02:53:58;100323.44;;;10.94
66795;BMP280;53698;52.738;4.752;2022-11-24T02:56:24;100326.03;;;10.97
66795;BMP280;53698;52.738;4.752;2022-11-24T02:58:49;100321.78;;;11.05
66795;BMP280;53698;52.738;4.752;2022-11-24T03:01:15;100330.41;;;11.12
66795;BMP280;53698;52.738;4.752;2022-11-24T03:03:40;100342.53;;;11.11
66795;BMP280;53698;52.738;4.752;2022-11-24T03:06:05;100329.47;;;11.15
66795;BMP280;53698;52.738;4.752;2022-11-24T03:08:31;100323.75;;;11.13
66795;BMP280;53698;52.738;4.752;2022-11-24T03:10:56;100326.16;;;11.11
66795;BMP280;53698;52.738;4.752;2022-11-24T03:13:21;100336.78;;;11.09
66795;BMP280;53698;52.738;4.752;2022-11-24T03:15:46;100343.28;;;11.20
66795;BMP280;53698;52.738;4.752;2022-11-24T03:18:12;100357.25;;;11.05
66795;BMP280;53698;52.738;4.752;2022-11-24T03:20:38;100371.19;;;11.07
66795;BMP280;53698;52.738;4.752;2022-11-24T03:23:03;100361.19;;;11.04
66795;BMP280;53698;52.738;4.752;2022-11-24T03:25:28;100366.97;;;11.06
66795;BMP280;53698;52.738;4.752;2022-11-24T03:27:55;100379.09;;;11.05
66795;BMP280;53698;52.738;4.752;2022-11-24T03:30:21;100374.56;;;11.02
66795;BMP280;53698;52.738;4.752;2022-11-24T03:32:46;100373.78;;;11.10
66795;BMP280;53698;52.738;4.752;2022-11-24T03:35:12;100365.72;;;11.07
66795;BMP280;53698;52.738;4.752;2022-11-24T03:37:37;100374.72;;;10.99
66795;BMP280;53698;52.738;4.752;2022-11-24T03:40:02;100387.13;;;11.08
66795;BMP280;53698;52.738;4.752;2022-11-24T03:42:28;100372.28;;;11.01
66795;BMP280;53698;52.738;4.752;2022-11-24T03:44:53;100381.81;;;11.05
66795;BMP280;53698;52.738;4.752;2022-11-24T03:47:19;100381.81;;;10.96
66795;BMP280;53698;52.738;4.752;2022-11-24T03:49:44;100378.94;;;10.91
66795;BMP280;53698;52.738;4.752;2022-11-24T03:52:09;100383.06;;;10.95
66795;BMP280;53698;52.738;4.752;2022-11-24T03:54:35;100387.13;;;11.00
66795;BMP280;53698;52.738;4.752;2022-11-24T03:57:00;100388.03;;;11.14
66795;BMP280;53698;52.738;4.752;2022-11-24T03:59:25;100394.25;;;11.15
66795;BMP280;53698;52.738;4.752;2022-11-24T04:01:51;100400.34;;;11.10
66795;BMP280;53698;52.738;4.752;2022-11-24T04:04:16;100399.56;;;11.09
66795;BMP280;53698;52.738;4.752;2022-11-24T04:06:41;100399.13;;;11.02
66795;BMP280;53698;52.738;4.752;2022-11-24T04:09:07;100403.06;;;11.10
66795;BMP280;53698;52.738;4.752;2022-11-24T04:11:33;100409.41;;;11.07
66795;BMP280;53698;52.738;4.752;2022-11-24T04:14:17;100400.00;;;11.08
66795;BMP280;53698;52.738;4.752;2022-11-24T04:16:43;100397.91;;;11.12
66795;BMP280;53698;52.738;4.752;2022-11-24T04:19:08;100403.06;;;11.01
66795;BMP280;53698;52.738;4.752;2022-11-24T04:21:34;100391.53;;;11.06
66795;BMP280;53698;52.738;4.752;2022-11-24T04:23:59;100414.25;;;11.03
66795;BMP280;53698;52.738;4.752;2022-11-24T04:26:24;100427.47;;;11.04
66795;BMP280;53698;52.738;4.752;2022-11-24T04:28:49;100416.84;;;11.15
66795;BMP280;53698;52.738;4.752;2022-11-24T04:31:15;100437.47;;;11.07
66795;BMP280;53698;52.738;4.752;2022-11-24T04:33:40;100445.84;;;11.13
66795;BMP280;53698;52.738;4.752;2022-11-24T04:36:06;100426.09;;;11.18
66795;BMP280;53698;52.738;4.752;2022-11-24T04:38:31;100433.25;;;11.06
66795;BMP280;53698;52.738;4.752;2022-11-24T04:41:00;100435.38;;;11.02
66795;BMP280;53698;52.738;4.752;2022-11-24T04:43:25;100438.84;;;10.94
66795;BMP280;53698;52.738;4.752;2022-11-24T04:45:51;100435.63;;;10.96
66795;BMP280;53698;52.738;4.752;2022-11-24T04:48:16;100444.16;;;11.06
66795;BMP280;53698;52.738;4.752;2022-11-24T04:50:41;100456.88;;;11.01
66795;BMP280;53698;52.738;4.752;2022-11-24T04:53:07;100467.31;;;10.76
66795;BMP280;53698;52.738;4.752;2022-11-24T04:55:33;100470.22;;;10.81
66795;BMP280;53698;52.738;4.752;2022-11-24T04:57:58;100476.72;;;10.92
66795;BMP280;53698;52.738;4.752;2022-11-24T05:00:23;100471.44;;;10.98
66795;BMP280;53698;52.738;4.752;2022-11-24T05:02:48;100465.81;;;10.92
66795;BMP280;53698;52.738;4.752;2022-11-24T05:05:14;100471.28;;;11.01
66795;BMP280;53698;52.738;4.752;2022-11-24T05:07:39;100479.03;;;11.02
66795;BMP280;53698;52.738;4.752;2022-11-24T05:10:04;100477.38;;;11.05
66795;BMP280;53698;52.738;4.752;2022-11-24T05:12:55;100483.47;;;11.26
66795;BMP280;53698;52.738;4.752;2022-11-24T05:15:21;100484.34;;;11.15
66795;BMP280;53698;52.738;4.752;2022-11-24T05:17:46;100481.63;;;11.15
66795;BMP280;53698;52.738;4.752;2022-11-24T05:20:11;100499.06;;;11.08
66795;BMP280;53698;52.738;4.752;2022-11-24T05:22:36;100510.75;;;11.09
66795;BMP280;53698;52.738;4.752;2022-11-24T05:25:02;100508.75;;;11.01
66795;BMP280;53698;52.738;4.752;2022-11-24T05:27:27;100513.59;;;10.88
66795;BMP280;53698;52.738;4.752;2022-11-24T05:29:53;100530.06;;;10.76
66795;BMP280;53698;52.738;4.752;2022-11-24T05:32:18;100529.16;;;10.70
66795;BMP280;53698;52.738;4.752;2022-11-24T05:34:43;100545.91;;;10.51
66795;BMP280;53698;52.738;4.752;2022-11-24T05:37:09;100546.94;;;10.45
66795;BMP280;53698;52.738;4.752;2022-11-24T05:39:35;100548.63;;;10.51
66795;BMP280;53698;52.738;4.752;2022-11-24T05:42:00;100554.03;;;10.42
66795;BMP280;53698;52.738;4.752;2022-11-24T05:44:46;100563.09;;;10.39
66795;BMP280;53698;52.738;4.752;2022-11-24T05:47:11;100577.22;;;10.38
66795;BMP280;53698;52.738;4.752;2022-11-24T05:49:36;100572.06;;;10.40
66795;BMP280;53698;52.738;4.752;2022-11-24T05:52:02;100575.09;;;10.42
66795;BMP280;53698;52.738;4.752;2022-11-24T05:54:27;100578.00;;;10.47
66795;BMP280;53698;52.738;4.752;2022-11-24T05:56:52;100580.91;;;10.52
66795;BMP280;53698;52.738;4.752;2022-11-24T05:59:17;100579.56;;;10.57
66795;BMP280;53698;52.738;4.752;2022-11-24T06:01:43;100583.06;;;10.57
66795;BMP280;53698;52.738;4.752;2022-11-24T06:04:08;100589.00;;;10.65
66795;BMP280;53698;52.738;4.752;2022-11-24T06:06:33;100587.59;;;10.60
66795;BMP280;53698;52.738;4.752;2022-11-24T06:08:58;100595.78;;;10.60
66795;BMP280;53698;52.738;4.752;2022-11-24T06:11:23;100601.25;;;10.60
66795;BMP280;53698;52.738;4.752;2022-11-24T06:13:49;100607.31;;;10.55
66795;BMP280;53698;52.738;4.752;2022-11-24T06:16:14;100613.38;;;10.59
66795;BMP280;53698;52.738;4.752;2022-11-24T06:18:39;100615.75;;;10.49
66795;BMP280;53698;52.738;4.752;2022-11-24T06:21:05;100607.94;;;10.38
66795;BMP280;53698;52.738;4.752;2022-11-24T06:23:31;100619.31;;;10.37
66795;BMP280;53698;52.738;4.752;2022-11-24T06:25:57;100613.78;;;10.28
66795;BMP280;53698;52.738;4.752;2022-11-24T06:28:22;100624.28;;;10.30
66795;BMP280;53698;52.738;4.752;2022-11-24T06:30:48;100622.75;;;10.29
66795;BMP280;53698;52.738;4.752;2022-11-24T06:33:13;100626.78;;;10.24
66795;BMP280;53698;52.738;4.752;2022-11-24T06:35:38;100632.25;;;10.24
66795;BMP280;53698;52.738;4.752;2022-11-24T06:38:03;100650.41;;;10.18
66795;BMP280;53698;52.738;4.752;2022-11-24T06:40:29;100637.84;;;10.21
66795;BMP280;53698;52.738;4.752;2022-11-24T06:42:54;100655.22;;;10.15
66795;BMP280;53698;52.738;4.752;2022-11-24T06:45:19;100661.84;;;10.14
66795;BMP280;53698;52.738;4.752;2022-11-24T06:47:44;100666.41;;;10.17
66795;BMP280;53698;52.738;4.752;2022-11-24T06:50:10;100669.22;;;10.04
66795;BMP280;53698;52.738;4.752;2022-11-24T06:52:35;100673.25;;;10.00
66795;BMP280;53698;52.738;4.752;2022-11-24T06:55:00;100676.53;;;9.95
66795;BMP280;53698;52.738;4.752;2022-11-24T06:57:26;100679.47;;;10.00
66795;BMP280;53698;52.738;4.752;2022-11-24T06:59:51;100689.19;;;10.01
66795;BMP280;53698;52.738;4.752;2022-11-24T07:02:16;100687.25;;;9.90
66795;BMP280;53698;52.738;4.752;2022-11-24T07:04:41;100693.94;;;9.77
66795;BMP280;53698;52.738;4.752;2022-11-24T07:07:07;100708.41;;;9.74
66795;BMP280;53698;52.738;4.752;2022-11-24T07:09:32;100707.78;;;9.82
66795;BMP280;53698;52.738;4.752;2022-11-24T07:11:58;100709.31;;;9.83
66795;BMP280;53698;52.738;4.752;2022-11-24T07:14:23;100714.28;;;9.84
66795;BMP280;53698;52.738;4.752;2022-11-24T07:16:48;100714.38;;;9.93
66795;BMP280;53698;52.738;4.752;2022-11-24T07:19:13;100733.34;;;9.97
66795;BMP280;53698;52.738;4.752;2022-11-24T07:21:39;100727.22;;;10.05
66795;BMP280;53698;52.738;4.752;2022-11-24T07:24:04;100738.19;;;10.14
66795;BMP280;53698;52.738;4.752;2022-11-24T07:26:29;100730.81;;;10.02
66795;BMP280;53698;52.738;4.752;2022-11-24T07:28:55;100732.78;;;10.01
66795;BMP280;53698;52.738;4.752;2022-11-24T07:31:21;100739.56;;;9.97
66795;BMP280;53698;52.738;4.752;2022-11-24T07:33:52;100745.69;;;9.89
66795;BMP280;53698;52.738;4.752;2022-11-24T07:36:18;100754.31;;;9.87
66795;BMP280;53698;52.738;4.752;2022-11-24T07:38:44;100755.16;;;9.84
66795;BMP280;53698;52.738;4.752;2022-11-24T07:41:10;100764.88;;;9.85
66795;BMP280;53698;52.738;4.752;2022-11-24T07:43:36;100769.19;;;9.95
66795;BMP280;53698;52.738;4.752;2022-11-24T07:46:02;100774.75;;;10.04
66795;BMP280;53698;52.738;4.752;2022-11-24T07:48:28;100772.56;;;10.11
66795;BMP280;53698;52.738;4.752;2022-11-24T07:50:53;100784.66;;;10.10
66795;BMP280;53698;52.738;4.752;2022-11-24T07:53:18;100790.31;;;10.16
66795;BMP280;53698;52.738;4.752;2022-11-24T07:55:43;100792.81;;;10.22
66795;BMP280;53698;52.738;4.752;2022-11-24T07:58:16;100790.63;;;10.17
66795;BMP280;53698;52.738;4.752;2022-11-24T08:00:41;100801.47;;;10.09
66795;BMP280;53698;52.738;4.752;2022-11-24T08:03:06;100809.19;;;10.10
66795;BMP280;53698;52.738;4.752;2022-11-24T08:05:32;100811.03;;;10.13
66795;BMP280;53698;52.738;4.752;2022-11-24T08:07:58;100804.47;;;10.23
66795;BMP280;53698;52.738;4.752;2022-11-24T08:10:23;100820.53;;;10.42
66795;BMP280;53698;52.738;4.752;2022-11-24T08:12:48;100817.22;;;10.59
66795;BMP280;53698;52.738;4.752;2022-11-24T08:15:14;100818.22;;;10.52
66795;BMP280;53698;52.738;4.752;2022-11-24T08:17:39;100820.94;;;10.52
66795;BMP280;53698;52.738;4.752;2022-11-24T08:20:04;100824.38;;;10.44
66795;BMP280;53698;52.738;4.752;2022-11-24T08:22:30;100840.84;;;10.41
66795;BMP280;53698;52.738;4.752;2022-11-24T08:24:55;100836.06;;;10.33
66795;BMP280;53698;52.738;4.752;2022-11-24T08:27:20;100841.44;;;10.24
66795;BMP280;53698;52.738;4.752;2022-11-24T08:29:45;100849.41;;;10.18
66795;BMP280;53698;52.738;4.752;2022-11-24T08:32:11;100856.81;;;10.18
66795;BMP280;53698;52.738;4.752;2022-11-24T08:34:36;100851.38;;;10.18
66795;BMP280;53698;52.738;4.752;2022-11-24T08:37:05;100856.81;;;10.30
66795;BMP280;53698;52.738;4.752;2022-11-24T08:39:30;100861.16;;;10.40
66795;BMP280;53698;52.738;4.752;2022-11-24T08:41:56;100861.66;;;10.47
66795;BMP280;53698;52.738;4.752;2022-11-24T08:44:21;100870.28;;;10.46
66795;BMP280;53698;52.738;4.752;2022-11-24T08:46:47;100875.72;;;10.46
66795;BMP280;53698;52.738;4.752;2022-11-24T08:49:12;100876.91;;;10.57
66795;BMP280;53698;52.738;4.752;2022-11-24T08:51:39;100877.25;;;10.59
66795;BMP280;53698;52.738;4.752;2022-11-24T08:54:04;100886.81;;;10.63
66795;BMP280;53698;52.738;4.752;2022-11-24T08:56:30;100894.44;;;10.68
66795;BMP280;53698;52.738;4.752;2022-11-24T08:58:56;100883.03;;;10.82
66795;BMP280;53698;52.738;4.752;2022-11-24T09:01:22;100885.47;;;11.01
66795;BMP280;53698;52.738;4.752;2022-11-24T09:03:48;100897.03;;;11.25
66795;BMP280;53698;52.738;4.752;2022-11-24T09:06:13;100901.69;;;11.37
66795;BMP280;53698;52.738;4.752;2022-11-24T09:08:39;100898.44;;;11.51
66795;BMP280;53698;52.738;4.752;2022-11-24T09:11:05;100894.06;;;11.53
66795;BMP280;53698;52.738;4.752;2022-11-24T09:13:31;100904.53;;;11.54
66795;BMP280;53698;52.738;4.752;2022-11-24T09:16:00;100908.38;;;11.66
66795;BMP280;53698;52.738;4.752;2022-11-24T09:18:26;100910.94;;;11.90
66795;BMP280;53698;52.738;4.752;2022-11-24T09:20:51;100911.13;;;12.04
66795;BMP280;53698;52.738;4.752;2022-11-24T09:23:16;100912.91;;;12.28
66795;BMP280;53698;52.738;4.752;2022-11-24T09:25:41;100905.31;;;12.40
66795;BMP280;53698;52.738;4.752;2022-11-24T09:28:07;100909.84;;;12.26
66795;BMP280;53698;52.738;4.752;2022-11-24T09:30:32;100916.56;;;12.34
66795;BMP280;53698;52.738;4.752;2022-11-24T09:32:57;100925.38;;;12.38
66795;BMP280;53698;52.738;4.752;2022-11-24T09:35:22;100921.59;;;12.44
66795;BMP280;53698;52.738;4.752;2022-11-24T09:37:48;100929.44;;;12.63
66795;BMP280;53698;52.738;4.752;2022-11-24T09:40:14;100932.97;;;12.72
66795;BMP280;53698;52.738;4.752;2022-11-24T09:45:13;100929.63;;;13.03
66795;BMP280;53698;52.738;4.752;2022-11-24T09:50:15;100939.69;;;13.15
66795;BMP280;53698;52.738;4.752;2022-11-24T09:55:17;100945.00;;;13.09
66795;BMP280;53698;52.738;4.752;2022-11-24T09:57:43;100951.25;;;13.10
66795;BMP280;53698;52.738;4.752;2022-11-24T10:00:10;100956.72;;;13.27
66795;BMP280;53698;52.738;4.752;2022-11-24T10:02:36;100967.03;;;13.41
66795;BMP280;53698;52.738;4.752;2022-11-24T10:05:02;100960.50;;;13.47
66795;BMP280;53698;52.738;4.752;2022-11-24T10:07:29;100962.19;;;13.45
66795;BMP280;53698;52.738;4.752;2022-11-24T10:12:49;100959.75;;;13.47
66795;BMP280;53698;52.738;4.752;2022-11-24T10:17:51;100958.81;;;13.41
66795;BMP280;53698;52.738;4.752;2022-11-24T10:25:41;100968.50;;;13.77
66795;BMP280;53698;52.738;4.752;2022-11-24T10:28:14;100959.06;;;13.95
66795;BMP280;53698;52.738;4.752;2022-11-24T10:30:39;100958.78;;;13.85
66795;BMP280;53698;52.738;4.752;2022-11-24T10:35:42;100956.56;;;14.15
66795;BMP280;53698;52.738;4.752;2022-11-24T10:40:50;100968.47;;;14.03
66795;BMP280;53698;52.738;4.752;2022-11-24T10:43:16;100971.59;;;14.28
66795;BMP280;53698;52.738;4.752;2022-11-24T10:45:41;100980.63;;;14.20
66795;BMP280;53698;52.738;4.752;2022-11-24T10:48:11;100988.72;;;14.14
66795;BMP280;53698;52.738;4.752;2022-11-24T10:50:39;100984.00;;;14.06
66795;BMP280;53698;52.738;4.752;2022-11-24T10:55:56;100980.56;;;14.37
66795;BMP280;53698;52.738;4.752;2022-11-24T10:58:22;100983.31;;;14.37
66795;BMP280;53698;52.738;4.752;2022-11-24T11:00:48;100997.09;;;14.20
66795;BMP280;53698;52.738;4.752;2022-11-24T11:05:42;100990.44;;;14.43
66795;BMP280;53698;52.738;4.752;2022-11-24T11:10:33;100994.03;;;14.26
66795;BMP280;53698;52.738;4.752;2022-11-24T11:12:59;101002.84;;;14.62
66795;BMP280;53698;52.738;4.752;2022-11-24T11:15:28;100998.03;;;14.48
66795;BMP280;53698;52.738;4.752;2022-11-24T11:17:57;101000.34;;;14.01
66795;BMP280;53698;52.738;4.752;2022-11-24T11:20:26;101015.41;;;14.14
66795;BMP280;53698;52.738;4.752;2022-11-24T11:22:51;101010.88;;;14.42
66795;BMP280;53698;52.738;4.752;2022-11-24T11:25:19;101013.91;;;14.76
66795;BMP280;53698;52.738;4.752;2022-11-24T11:27:45;101010.66;;;14.55
66795;BMP280;53698;52.738;4.752;2022-11-24T11:30:24;101006.38;;;14.62
66795;BMP280;53698;52.738;4.752;2022-11-24T11:32:51;101007.59;;;14.61
66795;BMP280;53698;52.738;4.752;2022-11-24T11:35:17;101006.06;;;14.60
66795;BMP280;53698;52.738;4.752;2022-11-24T11:37:42;101003.09;;;14.73
66795;BMP280;53698;52.738;4.752;2022-11-24T11:40:13;100998.38;;;14.96
66795;BMP280;53698;52.738;4.752;2022-11-24T11:42:43;101002.09;;;15.53
66795;BMP280;53698;52.738;4.752;2022-11-24T11:45:15;100993.94;;;15.86
66795;BMP280;53698;52.738;4.752;2022-11-24T11:47:43;100994.47;;;15.99
66795;BMP280;53698;52.738;4.752;2022-11-24T11:50:10;100997.75;;;16.45
66795;BMP280;53698;52.738;4.752;2022-11-24T11:57:42;101001.94;;;15.33
66795;BMP280;53698;52.738;4.752;2022-11-24T12:05:09;101010.59;;;15.18
66795;BMP280;53698;52.738;4.752;2022-11-24T12:10:22;101009.59;;;15.66
66795;BMP280;53698;52.738;4.752;2022-11-24T12:25:45;101008.38;;;17.19
66795;BMP280;53698;52.738;4.752;2022-11-24T12:28:22;101016.22;;;17.26
66795;BMP280;53698;52.738;4.752;2022-11-24T12:33:34;101037.34;;;16.33
66795;BMP280;53698;52.738;4.752;2022-11-24T12:43:49;101016.66;;;17.63
66795;BMP280;53698;52.738;4.752;2022-11-24T12:51:34;101024.44;;;16.39
66795;BMP280;53698;52.738;4.752;2022-11-24T12:54:01;101033.16;;;15.81
66795;BMP280;53698;52.738;4.752;2022-11-24T12:56:30;101025.59;;;16.19
66795;BMP280;53698;52.738;4.752;2022-11-24T12:59:10;101020.56;;;16.03
66795;BMP280;53698;52.738;4.752;2022-11-24T13:01:39;101022.94;;;14.99
66795;BMP280;53698;52.738;4.752;2022-11-24T13:04:29;101033.16;;;14.36
66795;BMP280;53698;52.738;4.752;2022-11-24T13:09:20;101040.28;;;14.02
66795;BMP280;53698;52.738;4.752;2022-11-24T13:11:49;101034.66;;;13.88
66795;BMP280;53698;52.738;4.752;2022-11-24T13:16:47;101040.59;;;13.69
66795;BMP280;53698;52.738;4.752;2022-11-24T13:19:13;101034.34;;;13.68
66795;BMP280;53698;52.738;4.752;2022-11-24T13:29:27;101034.34;;;13.77
66795;BMP280;53698;52.738;4.752;2022-11-24T13:31:54;101039.38;;;13.78
66795;BMP280;53698;52.738;4.752;2022-11-24T13:39:47;101041.66;;;13.71
66795;BMP280;53698;52.738;4.752;2022-11-24T13:42:13;101038.63;;;13.69
66795;BMP280;53698;52.738;4.752;2022-11-24T13:49:53;101048.38;;;13.53
66795;BMP280;53698;52.738;4.752;2022-11-24T13:55:25;101047.78;;;13.40
66795;BMP280;53698;52.738;4.752;2022-11-24T13:57:49;101045.31;;;13.42
66795;BMP280;53698;52.738;4.752;2022-11-24T14:00:22;101046.69;;;13.46
66795;BMP280;53698;52.738;4.752;2022-11-24T14:02:48;101044.09;;;13.43
66795;BMP280;53698;52.738;4.752;2022-11-24T14:05:15;101050.97;;;13.39
66795;BMP280;53698;52.738;4.752;2022-11-24T14:07:42;101040.78;;;13.48
66795;BMP280;53698;52.738;4.752;2022-11-24T14:10:13;101039.84;;;13.33
66795;BMP280;53698;52.738;4.752;2022-11-24T14:12:39;101031.94;;;13.44
66795;BMP280;53698;52.738;4.752;2022-11-24T14:15:15;101031.78;;;13.39
66795;BMP280;53698;52.738;4.752;2022-11-24T14:17:43;101026.72;;;13.37
66795;BMP280;53698;52.738;4.752;2022-11-24T14:20:15;101042.28;;;13.40
66795;BMP280;53698;52.738;4.752;2022-11-24T14:22:40;101032.38;;;13.25
66795;BMP280;53698;52.738;4.752;2022-11-24T14:25:21;101045.03;;;13.23
66795;BMP280;53698;52.738;4.752;2022-11-24T14:27:48;101036.34;;;13.15
66795;BMP280;53698;52.738;4.752;2022-11-24T14:32:39;101035.53;;;13.06
66795;BMP280;53698;52.738;4.752;2022-11-24T14:37:49;101028.34;;;12.91
66795;BMP280;53698;52.738;4.752;2022-11-24T14:40:37;101029.13;;;12.83
66795;BMP280;53698;52.738;4.752;2022-11-24T14:43:03;101039.41;;;12.70
66795;BMP280;53698;52.738;4.752;2022-11-24T14:45:28;101028.47;;;12.70
66795;BMP280;53698;52.738;4.752;2022-11-24T14:47:53;101030.84;;;12.59
66795;BMP280;53698;52.738;4.752;2022-11-24T14:50:20;101019.69;;;12.45
66795;BMP280;53698;52.738;4.752;2022-11-24T14:52:56;101021.34;;;12.43
66795;BMP280;53698;52.738;4.752;2022-11-24T14:55:26;101024.31;;;12.27
66795;BMP280;53698;52.738;4.752;2022-11-24T14:57:51;101025.94;;;12.16
66795;BMP280;53698;52.738;4.752;2022-11-24T15:02:52;101030.00;;;12.12
66795;BMP280;53698;52.738;4.752;2022-11-24T15:05:19;101027.41;;;12.08
66795;BMP280;53698;52.738;4.752;2022-11-24T15:07:46;101029.13;;;11.94
66795;BMP280;53698;52.738;4.752;2022-11-24T15:10:19;101029.41;;;11.87
66795;BMP280;53698;52.738;4.752;2022-11-24T15:12:52;101023.25;;;11.74
66795;BMP280;53698;52.738;4.752;2022-11-24T15:15:19;101027.81;;;11.77
66795;BMP280;53698;52.738;4.752;2022-11-24T15:18:17;101026.41;;;11.73
66795;BMP280;53698;52.738;4.752;2022-11-24T15:20:43;101025.41;;;11.58
66795;BMP280;53698;52.738;4.752;2022-11-24T15:25:37;101043.06;;;11.66
66795;BMP280;53698;52.738;4.752;2022-11-24T15:28:03;101037.28;;;11.64
66795;BMP280;53698;52.738;4.752;2022-11-24T15:30:28;101036.66;;;11.60
66795;BMP280;53698;52.738;4.752;2022-11-24T15:32:55;101025.84;;;11.57
66795;BMP280;53698;52.738;4.752;2022-11-24T15:35:21;101032.66;;;11.53
66795;BMP280;53698;52.738;4.752;2022-11-24T15:37:47;101040.84;;;11.53
66795;BMP280;53698;52.738;4.752;2022-11-24T15:40:12;101040.25;;;11.57
66795;BMP280;53698;52.738;4.752;2022-11-24T15:42:38;101030.59;;;11.65
66795;BMP280;53698;52.738;4.752;2022-11-24T15:45:03;101028.97;;;11.68
66795;BMP280;53698;52.738;4.752;2022-11-24T15:47:28;101027.31;;;11.70
66795;BMP280;53698;52.738;4.752;2022-11-24T15:49:54;101032.13;;;11.66